createdAt,value
2022-08-17T00:01:00.486Z,100805.16
2022-08-17T00:02:36.779Z,100795.50
2022-08-17T00:04:15.209Z,100789.31
2022-08-17T00:05:51.993Z,100791.13
2022-08-17T00:07:23.836Z,100788.56
2022-08-17T00:09:00.931Z,100787.88
2022-08-17T00:10:34.269Z,100789.81
2022-08-17T00:12:43.016Z,100788.94
2022-08-17T00:14:02.414Z,100788.09
2022-08-17T00:15:34.454Z,100783.69
2022-08-17T00:17:06.560Z,100784.66
2022-08-17T00:19:01.650Z,100779.22
2022-08-17T00:20:34.983Z,100774.81
2022-08-17T00:22:34.963Z,100780.38
2022-08-17T00:23:59.801Z,100767.09
2022-08-17T00:25:31.684Z,100766.31
2022-08-17T00:27:03.882Z,100773.47
2022-08-17T00:28:37.400Z,100772.06
2022-08-17T00:30:14.417Z,100778.34
2022-08-17T00:31:46.250Z,100774.06
2022-08-17T00:33:25.422Z,100781.97
2022-08-17T00:34:57.623Z,100774.06
2022-08-17T00:36:29.768Z,100780.34
2022-08-17T00:38:01.721Z,100779.50
2022-08-17T00:39:34.141Z,100777.69
2022-08-17T00:41:17.888Z,100771.38
2022-08-17T00:42:50.971Z,100769.66
2022-08-17T00:44:22.899Z,100772.34
2022-08-17T00:46:10.871Z,100767.84
2022-08-17T00:47:43.734Z,100768.72
2022-08-17T00:49:19.686Z,100767.84
2022-08-17T00:51:20.523Z,100760.81
2022-08-17T00:52:55.440Z,100769.66
2022-08-17T00:54:29.695Z,100767.97
2022-08-17T00:56:05.355Z,100762.63
2022-08-17T00:57:41.206Z,100773.31
2022-08-17T00:59:16.032Z,100767.19
2022-08-17T01:00:48.350Z,100768.91
2022-08-17T01:02:20.589Z,100767.19
2022-08-17T01:03:53.899Z,100756.72
2022-08-17T01:05:32.796Z,100762.22
2022-08-17T01:07:06.089Z,100756.00
2022-08-17T01:08:40.681Z,100758.78
2022-08-17T01:10:58.953Z,100757.06
2022-08-17T01:12:08.622Z,100754.59
2022-08-17T01:13:43.222Z,100755.53
2022-08-17T01:15:16.345Z,100755.63
2022-08-17T01:16:50.788Z,100753.06
2022-08-17T01:18:22.834Z,100751.44
2022-08-17T01:19:55.032Z,100741.81
2022-08-17T01:21:44.872Z,100744.59
2022-08-17T01:23:21.439Z,100745.63
2022-08-17T01:24:59.219Z,100747.53
2022-08-17T01:26:33.178Z,100743.25
2022-08-17T01:28:05.659Z,100741.63
2022-08-17T01:29:39.931Z,100743.44
2022-08-17T01:31:11.898Z,100737.34
2022-08-17T01:32:43.810Z,100739.31
2022-08-17T01:34:17.265Z,100741.22
2022-08-17T01:35:49.174Z,100732.34
2022-08-17T01:37:29.115Z,100729.88
2022-08-17T01:39:00.979Z,100729.22
2022-08-17T01:40:39.311Z,100730.25
2022-08-17T01:42:14.009Z,100719.78
2022-08-17T01:43:51.026Z,100729.50
2022-08-17T01:45:29.035Z,100729.59
2022-08-17T01:47:00.873Z,100734.34
2022-08-17T01:48:35.850Z,100721.97
2022-08-17T01:50:27.015Z,100728.25
2022-08-17T01:52:05.699Z,100727.59
2022-08-17T01:53:42.436Z,100727.69
2022-08-17T01:55:16.795Z,100726.91
2022-08-17T01:56:50.991Z,100725.19
2022-08-17T01:58:23.244Z,100728.81
2022-08-17T01:59:55.326Z,100723.66
2022-08-17T02:01:29.828Z,100717.47
2022-08-17T02:03:01.753Z,100726.34
2022-08-17T02:04:33.919Z,100731.69
2022-08-17T02:06:27.042Z,100725.38
2022-08-17T02:08:00.923Z,100724.44
2022-08-17T02:09:32.801Z,100727.09
2022-08-17T02:11:11.186Z,100722.72
2022-08-17T02:12:43.698Z,100722.72
2022-08-17T02:14:15.506Z,100719.34
2022-08-17T02:15:47.727Z,100715.06
2022-08-17T02:17:19.498Z,100721.53
2022-08-17T02:18:51.335Z,100722.59
2022-08-17T02:20:42.189Z,100717.34
2022-08-17T02:22:15.753Z,100718.28
2022-08-17T02:23:48.698Z,100718.28
2022-08-17T02:25:21.396Z,100717.50
2022-08-17T02:26:56.311Z,100723.63
2022-08-17T02:28:29.126Z,100719.25
2022-08-17T02:30:00.965Z,100725.44
2022-08-17T02:31:32.941Z,100721.09
2022-08-17T02:33:06.358Z,100722.16
2022-08-17T02:34:41.621Z,100724.81
2022-08-17T02:36:14.007Z,100726.63
2022-08-17T02:37:46.152Z,100722.34
2022-08-17T02:39:23.952Z,100718.91
2022-08-17T02:40:55.873Z,100726.81
2022-08-17T02:42:34.412Z,100719.75
2022-08-17T02:44:07.236Z,100727.75
2022-08-17T02:45:39.770Z,100725.28
2022-08-17T02:47:11.989Z,100720.81
2022-08-17T02:48:43.752Z,100718.22
2022-08-17T02:50:17.523Z,100716.78
2022-08-17T02:51:50.295Z,100717.84
2022-08-17T02:53:22.129Z,100715.16
2022-08-17T02:54:54.059Z,100715.34
2022-08-17T02:56:25.887Z,100718.28
2022-08-17T02:57:57.747Z,100721.03
2022-08-17T02:59:30.178Z,100719.50
2022-08-17T03:01:02.010Z,100721.31
2022-08-17T03:02:40.805Z,100719.69
2022-08-17T03:04:12.671Z,100715.22
2022-08-17T03:05:48.169Z,100709.03
2022-08-17T03:07:20.584Z,100705.50
2022-08-17T03:08:54.757Z,100706.53
2022-08-17T03:10:26.916Z,100698.56
2022-08-17T03:12:13.031Z,100696.66
2022-08-17T03:13:44.952Z,100703.78
2022-08-17T03:15:19.432Z,100699.41
2022-08-17T03:16:51.394Z,100699.50
2022-08-17T03:18:25.518Z,100711.78
2022-08-17T03:20:05.094Z,100704.56
2022-08-17T03:21:36.949Z,100708.09
2022-08-17T03:23:08.961Z,100710.75
2022-08-17T03:24:41.303Z,100693.72
2022-08-17T03:26:15.521Z,100709.81
2022-08-17T03:27:48.357Z,100698.19
2022-08-17T03:29:23.323Z,100693.81
2022-08-17T03:30:55.174Z,100687.63
2022-08-17T03:32:27.042Z,100696.56
2022-08-17T03:33:59.233Z,100706.47
2022-08-17T03:35:33.909Z,100700.34
2022-08-17T03:37:05.842Z,100710.94
2022-08-17T03:38:39.066Z,100705.69
2022-08-17T03:40:12.099Z,100709.41
2022-08-17T03:41:43.956Z,100705.78
2022-08-17T03:43:16.846Z,100705.97
2022-08-17T03:44:49.941Z,100714.72
2022-08-17T03:46:40.222Z,100709.22
2022-08-17T03:48:30.546Z,100706.72
2022-08-17T03:50:40.371Z,100703.28
2022-08-17T03:52:30.820Z,100713.69
2022-08-17T03:54:21.260Z,100710.94
2022-08-17T03:56:11.722Z,100708.94
2022-08-17T03:57:43.574Z,100712.47
2022-08-17T03:59:22.920Z,100709.81
2022-08-17T04:00:55.174Z,100712.81
2022-08-17T04:02:32.100Z,100715.75
2022-08-17T04:04:04.780Z,100716.63
2022-08-17T04:05:36.512Z,100716.44
2022-08-17T04:07:08.723Z,100719.56
2022-08-17T04:08:40.578Z,100715.09
2022-08-17T04:10:12.543Z,100713.19
2022-08-17T04:11:44.353Z,100716.63
2022-08-17T04:13:16.350Z,100715.69
2022-08-17T04:14:57.022Z,100711.47
2022-08-17T04:16:28.985Z,100715.94
2022-08-17T04:18:00.860Z,100720.41
2022-08-17T04:19:32.718Z,100724.88
2022-08-17T04:21:08.818Z,100720.41
2022-08-17T04:23:06.327Z,100725.03
2022-08-17T04:24:38.197Z,100731.16
2022-08-17T04:26:10.366Z,100729.19
2022-08-17T04:28:02.834Z,100731.66
2022-08-17T04:29:54.154Z,100728.81
2022-08-17T04:31:27.364Z,100730.53
2022-08-17T04:33:06.294Z,100740.25
2022-08-17T04:34:53.888Z,100733.28
2022-08-17T04:36:25.809Z,100736.06
2022-08-17T04:37:58.181Z,100735.38
2022-08-17T04:39:30.110Z,100732.78
2022-08-17T04:41:20.958Z,100739.06
2022-08-17T04:43:07.385Z,100739.06
2022-08-17T04:44:39.176Z,100734.50
2022-08-17T04:46:14.655Z,100733.56
2022-08-17T04:47:46.500Z,100736.22
2022-08-17T04:49:18.676Z,100739.06
2022-08-17T04:50:51.725Z,100736.56
2022-08-17T04:52:29.858Z,100741.88
2022-08-17T04:54:18.247Z,100735.78
2022-08-17T04:55:52.152Z,100741.28
2022-08-17T04:57:24.031Z,100744.13
2022-08-17T04:58:59.706Z,100756.66
2022-08-17T05:00:31.998Z,100767.25
2022-08-17T05:02:04.429Z,100778.78
2022-08-17T05:03:36.324Z,100768.91
2022-08-17T05:05:08.507Z,100761.84
2022-08-17T05:06:41.454Z,100764.66
2022-08-17T05:08:13.231Z,100780.81
2022-08-17T05:09:45.052Z,100774.63
2022-08-17T05:11:17.217Z,100773.00
2022-08-17T05:12:58.401Z,100771.28
2022-08-17T05:14:33.385Z,100775.84
2022-08-17T05:16:06.602Z,100779.44
2022-08-17T05:17:38.302Z,100785.56
2022-08-17T05:19:10.120Z,100783.91
2022-08-17T05:20:44.959Z,100785.72
2022-08-17T05:22:16.752Z,100783.16
2022-08-17T05:23:55.088Z,100780.56
2022-08-17T05:25:33.313Z,100787.63
2022-08-17T05:27:08.112Z,100787.78
2022-08-17T05:28:40.014Z,100790.38
2022-08-17T05:30:12.854Z,100790.28
2022-08-17T05:31:44.681Z,100786.84
2022-08-17T05:33:19.426Z,100792.16
2022-08-17T05:34:51.205Z,100786.06
2022-08-17T05:36:43.580Z,100791.47
2022-08-17T05:38:16.399Z,100794.22
2022-08-17T05:39:48.337Z,100790.38
2022-08-17T05:41:20.159Z,100791.06
2022-08-17T05:42:53.419Z,100785.72
2022-08-17T05:44:25.290Z,100786.75
2022-08-17T05:46:20.752Z,100780.56
2022-08-17T05:47:52.552Z,100780.66
2022-08-17T05:49:27.381Z,100792.09
2022-08-17T05:51:22.328Z,100792.78
2022-08-17T05:53:05.916Z,100795.44
2022-08-17T05:54:43.911Z,100801.88
2022-08-17T05:56:39.315Z,100793.13
2022-08-17T05:58:55.828Z,100794.16
2022-08-17T06:00:44.699Z,100786.31
2022-08-17T06:02:28.759Z,100782.88
2022-08-17T06:04:03.323Z,100781.25
2022-08-17T06:06:03.152Z,100778.75
2022-08-17T06:07:49.423Z,100769.06
2022-08-17T06:09:33.632Z,100769.84
2022-08-17T06:11:11.049Z,100777.03
2022-08-17T06:13:04.723Z,100782.47
2022-08-17T06:14:41.562Z,100779.28
2022-08-17T06:16:31.079Z,100773.19
2022-08-17T06:18:09.184Z,100778.41
2022-08-17T06:20:07.367Z,100775.75
2022-08-17T06:21:51.457Z,100772.38
2022-08-17T06:23:45.464Z,100773.00
2022-08-17T06:25:26.011Z,100768.53
2022-08-17T06:27:04.488Z,100784.53
2022-08-17T06:28:43.411Z,100782.81
2022-08-17T06:30:25.730Z,100788.03
2022-08-17T06:31:57.803Z,100792.25
2022-08-17T06:33:35.867Z,100794.91
2022-08-17T06:35:09.736Z,100795.00
2022-08-17T06:37:04.223Z,100795.94
2022-08-17T06:39:10.666Z,100803.00
2022-08-17T06:40:56.508Z,100810.03
2022-08-17T06:42:54.619Z,100805.66
2022-08-17T06:44:49.676Z,100811.66
2022-08-17T06:46:25.448Z,100815.13
2022-08-17T06:48:07.094Z,100813.22
2022-08-17T06:49:45.966Z,100818.38
2022-08-17T06:51:26.003Z,100824.22
2022-08-17T06:53:04.976Z,100818.91
2022-08-17T06:54:39.247Z,100820.78
2022-08-17T06:56:22.211Z,100823.38
2022-08-17T06:57:58.476Z,100825.25
2022-08-17T06:59:55.947Z,100826.19
2022-08-17T07:01:34.317Z,100823.38
2022-08-17T07:03:28.001Z,100826.88
2022-08-17T07:05:01.881Z,100821.81
2022-08-17T07:06:48.073Z,100830.84
2022-08-17T07:08:31.206Z,100832.66
2022-08-17T07:10:19.987Z,100837.97
2022-08-17T07:12:10.661Z,100834.53
2022-08-17T07:13:53.588Z,100837.97
2022-08-17T07:15:27.199Z,100831.69
2022-08-17T07:17:00.628Z,100833.41
2022-08-17T07:18:33.359Z,100825.44
2022-08-17T07:20:09.834Z,100824.66
2022-08-17T07:21:47.644Z,100831.53
2022-08-17T07:23:26.907Z,100842.19
2022-08-17T07:25:02.310Z,100844.94
2022-08-17T07:26:34.213Z,100841.66
2022-08-17T07:28:07.923Z,100861.00
2022-08-17T07:29:50.704Z,100861.00
2022-08-17T07:31:25.418Z,100850.34
2022-08-17T07:32:58.678Z,100836.84
2022-08-17T07:34:30.540Z,100837.47
2022-08-17T07:36:03.255Z,100833.69
2022-08-17T07:37:38.941Z,100834.19
2022-08-17T07:39:12.430Z,100829.03
2022-08-17T07:40:58.016Z,100828.00
2022-08-17T07:42:30.094Z,100826.13
2022-08-17T07:44:01.969Z,100823.91
2022-08-17T07:45:54.852Z,100828.06
2022-08-17T07:47:45.402Z,100830.47
2022-08-17T07:49:31.705Z,100838.38
2022-08-17T07:51:22.218Z,100841.31
2022-08-17T07:52:53.982Z,100845.41
2022-08-17T07:54:35.807Z,100854.19
2022-08-17T07:56:08.056Z,100853.72
2022-08-17T07:57:40.766Z,100852.09
2022-08-17T07:59:23.886Z,100850.19
2022-08-17T08:01:05.088Z,100854.31
2022-08-17T08:02:40.350Z,100841.44
2022-08-17T08:04:59.221Z,100848.03
2022-08-17T08:06:28.840Z,100850.25
2022-08-17T08:08:06.520Z,100854.78
2022-08-17T08:09:43.687Z,100851.75
2022-08-17T08:11:29.991Z,100845.03
2022-08-17T08:13:08.500Z,100843.66
2022-08-17T08:14:54.627Z,100851.50
2022-08-17T08:16:29.699Z,100859.13
2022-08-17T08:18:04.106Z,100863.38
2022-08-17T08:19:38.861Z,100874.81
2022-08-17T08:21:18.444Z,100865.69
2022-08-17T08:22:58.051Z,100863.78
2022-08-17T08:24:38.690Z,100862.38
2022-08-17T08:26:26.587Z,100865.72
2022-08-17T08:28:17.154Z,100870.28
2022-08-17T08:30:17.265Z,100867.13
2022-08-17T08:32:16.553Z,100866.84
2022-08-17T08:33:56.426Z,100876.97
2022-08-17T08:35:34.461Z,100872.69
2022-08-17T08:37:30.487Z,100878.88
2022-08-17T08:39:24.710Z,100883.44
2022-08-17T08:41:06.793Z,100879.34
2022-08-17T08:43:14.212Z,100882.19
2022-08-17T08:45:05.418Z,100875.03
2022-08-17T08:46:50.353Z,100867.72
2022-08-17T08:48:56.895Z,100874.41
2022-08-17T08:50:42.917Z,100875.31
2022-08-17T08:52:37.554Z,100880.38
2022-08-17T08:54:35.380Z,100873.81
2022-08-17T08:56:14.404Z,100870.00
2022-08-17T08:57:51.345Z,100875.16
2022-08-17T08:59:23.302Z,100878.41
2022-08-17T09:00:56.781Z,100884.69
2022-08-17T09:02:59.387Z,100888.22
2022-08-17T09:05:18.512Z,100885.84
2022-08-17T09:07:02.396Z,100887.06
2022-08-17T09:09:02.664Z,100890.69
2022-08-17T09:11:08.425Z,100893.28
2022-08-17T09:12:50.572Z,100896.91
2022-08-17T09:14:28.983Z,100905.66
2022-08-17T09:16:07.293Z,100907.66
2022-08-17T09:18:08.628Z,100912.91
2022-08-17T09:19:47.236Z,100923.88
2022-08-17T09:21:33.708Z,100924.72
2022-08-17T09:23:27.183Z,100931.31
2022-08-17T09:25:14.457Z,100936.72
2022-08-17T09:26:51.568Z,100937.34
2022-08-17T09:28:30.397Z,100937.03
2022-08-17T09:30:08.615Z,100952.09
2022-08-17T09:31:55.345Z,100942.34
2022-08-17T09:33:27.855Z,100942.53
2022-08-17T09:35:04.171Z,100944.63
2022-08-17T09:36:41.708Z,100944.53
2022-08-17T09:38:13.514Z,100939.97
2022-08-17T09:39:50.570Z,100942.97
2022-08-17T09:41:33.803Z,100935.84
2022-08-17T09:43:24.833Z,100936.78
2022-08-17T09:45:22.104Z,100931.63
2022-08-17T09:47:00.170Z,100930.22
2022-08-17T09:48:44.264Z,100936.69
2022-08-17T09:51:03.709Z,100936.88
2022-08-17T09:52:32.791Z,100938.59
2022-08-17T09:54:37.019Z,100940.41
2022-08-17T09:56:47.052Z,100942.38
2022-08-17T09:58:45.452Z,100944.41
2022-08-17T10:00:32.578Z,100943.63
2022-08-17T10:02:23.378Z,100942.69
2022-08-17T10:04:32.343Z,100933.91
2022-08-17T10:06:41.618Z,100941.31
2022-08-17T10:08:44.316Z,100928.41
2022-08-17T10:10:24.970Z,100925.66
2022-08-17T10:12:20.678Z,100933.50
2022-08-17T10:14:36.472Z,100940.72
2022-08-17T10:16:15.132Z,100939.69
2022-08-17T10:17:55.733Z,100939.88
2022-08-17T10:19:45.211Z,100941.66
2022-08-17T10:21:36.858Z,100944.78
2022-08-17T10:23:47.026Z,100948.72
2022-08-17T10:25:53.914Z,100942.44
2022-08-17T10:27:38.081Z,100946.47
2022-08-17T10:29:09.867Z,100947.25
2022-08-17T10:31:10.470Z,100946.06
2022-08-17T10:33:14.564Z,100948.81
2022-08-17T10:34:55.523Z,100951.66
2022-08-17T10:36:43.262Z,100949.41
2022-08-17T10:38:33.755Z,100951.22
2022-08-17T10:40:18.162Z,100949.41
2022-08-17T10:41:54.342Z,100944.94
2022-08-17T10:44:38.308Z,100946.31
2022-08-17T10:46:30.574Z,100946.31
2022-08-17T10:48:07.091Z,100947.25
2022-08-17T10:49:47.681Z,100946.47
2022-08-17T10:51:39.021Z,100953.53
2022-08-17T10:53:10.911Z,100961.63
2022-08-17T10:54:58.286Z,100968.59
2022-08-17T10:56:44.915Z,100977.69
2022-08-17T10:58:21.236Z,100981.16
2022-08-17T10:59:58.639Z,100981.06
2022-08-17T11:01:33.983Z,100982.16
2022-08-17T11:03:17.941Z,100979.75
2022-08-17T11:05:01.679Z,100984.22
2022-08-17T11:06:39.199Z,100981.94
2022-08-17T11:08:48.698Z,100984.53
2022-08-17T11:10:52.137Z,100990.88
2022-08-17T11:13:05.775Z,100991.13
2022-08-17T11:14:49.829Z,101000.13
2022-08-17T11:16:30.661Z,100997.53
2022-08-17T11:18:46.650Z,101003.56
2022-08-17T11:20:30.657Z,100995.81
2022-08-17T11:22:34.141Z,100996.69
2022-08-17T11:24:12.127Z,101001.06
2022-08-17T11:25:50.701Z,100993.22
2022-08-17T11:27:34.784Z,100987.75
2022-08-17T11:29:18.664Z,100984.22
2022-08-17T11:30:57.288Z,100993.06
2022-08-17T11:32:47.367Z,100989.47
2022-08-17T11:34:26.602Z,100989.16
2022-08-17T11:36:12.023Z,100989.78
2022-08-17T11:37:52.690Z,100985.00
2022-08-17T11:39:34.579Z,100983.53
2022-08-17T11:41:20.598Z,100974.59
2022-08-17T11:43:25.386Z,100972.69
2022-08-17T11:45:39.600Z,100966.34
2022-08-17T11:47:38.936Z,100965.47
2022-08-17T11:49:37.887Z,100967.53
2022-08-17T11:51:34.532Z,100964.78
2022-08-17T11:53:06.693Z,100961.34
2022-08-17T11:54:47.760Z,100963.06
2022-08-17T11:56:41.701Z,100961.25
2022-08-17T11:58:37.522Z,100961.19
2022-08-17T12:00:56.780Z,100965.88
2022-08-17T12:02:31.441Z,100964.22
2022-08-17T12:04:22.846Z,100968.69
2022-08-17T12:06:06.221Z,100969.25
2022-08-17T12:07:47.012Z,100973.03
2022-08-17T12:09:25.154Z,100973.97
2022-08-17T12:11:01.102Z,100973.19
2022-08-17T12:12:33.398Z,100973.09
2022-08-17T12:14:06.347Z,100970.53
2022-08-17T12:15:43.370Z,100977.72
2022-08-17T12:17:39.454Z,100980.47
2022-08-17T12:19:19.436Z,100975.16
2022-08-17T12:21:18.308Z,100971.53
2022-08-17T12:23:01.187Z,100985.66
2022-08-17T12:24:59.745Z,100990.13
2022-08-17T12:26:34.920Z,100987.44
2022-08-17T12:28:23.056Z,100988.22
2022-08-17T12:29:55.655Z,100980.06
2022-08-17T12:31:31.607Z,100985.31
2022-08-17T12:33:03.603Z,100990.47
2022-08-17T12:34:43.060Z,100981.47
2022-08-17T12:36:17.205Z,100992.91
2022-08-17T12:37:50.451Z,100994.25
2022-08-17T12:39:25.001Z,100994.72
2022-08-17T12:40:58.331Z,100999.56
2022-08-17T12:42:34.938Z,101009.03
2022-08-17T12:44:23.332Z,101003.00
2022-08-17T12:45:57.653Z,101007.47
2022-08-17T12:47:30.547Z,101009.69
2022-08-17T12:49:38.487Z,101009.84
2022-08-17T12:51:12.449Z,101011.59
2022-08-17T12:52:44.418Z,101009.00
2022-08-17T12:54:51.146Z,101006.59
2022-08-17T12:56:23.018Z,101003.84
2022-08-17T12:57:56.495Z,101013.81
2022-08-17T12:59:30.236Z,101018.63
2022-08-17T13:01:06.243Z,101007.44
2022-08-17T13:03:09.226Z,101011.19
2022-08-17T13:04:44.559Z,101019.25
2022-08-17T13:06:33.308Z,101018.84
2022-08-17T13:08:18.014Z,101022.16
2022-08-17T13:09:52.596Z,101024.13
2022-08-17T13:11:25.308Z,101016.31
2022-08-17T13:12:58.252Z,101019.13
2022-08-17T13:14:30.157Z,101023.75
2022-08-17T13:16:17.378Z,101018.44
2022-08-17T13:18:28.219Z,101016.31
2022-08-17T13:20:00.564Z,101009.88
2022-08-17T13:21:33.675Z,101011.28
2022-08-17T13:23:12.039Z,101013.44
2022-08-17T13:24:54.548Z,101003.56
2022-08-17T13:26:38.575Z,101005.75
2022-08-17T13:28:18.436Z,101005.94
2022-08-17T13:30:08.605Z,101002.19
2022-08-17T13:31:52.930Z,101008.22
2022-08-17T13:33:45.270Z,101008.03
2022-08-17T13:35:29.680Z,101008.91
2022-08-17T13:37:25.716Z,101010.09
2022-08-17T13:39:18.937Z,101015.31
2022-08-17T13:40:53.345Z,101003.56
2022-08-17T13:42:31.019Z,101005.63
2022-08-17T13:44:04.371Z,100994.25
2022-08-17T13:45:43.560Z,101002.09
2022-08-17T13:47:18.784Z,100998.19
2022-08-17T13:49:11.613Z,101010.56
2022-08-17T13:50:46.440Z,101010.47
2022-08-17T13:52:48.831Z,101007.66
2022-08-17T13:54:23.646Z,101008.13
2022-08-17T13:55:59.934Z,101004.19
2022-08-17T13:57:31.898Z,101006.09
2022-08-17T13:59:08.072Z,101009.91
2022-08-17T14:00:40.888Z,101011.44
2022-08-17T14:02:14.065Z,101008.69
2022-08-17T14:03:45.899Z,101011.09
2022-08-17T14:05:23.420Z,101011.19
2022-08-17T14:06:57.241Z,101006.88
2022-08-17T14:08:30.917Z,101003.63
2022-08-17T14:10:17.394Z,101005.09
2022-08-17T14:11:49.692Z,101001.13
2022-08-17T14:13:21.573Z,101011.09
2022-08-17T14:14:55.220Z,101005.56
2022-08-17T14:16:27.101Z,100994.13
2022-08-17T14:17:58.953Z,100994.13
2022-08-17T14:19:30.991Z,101000.16
2022-08-17T14:21:02.833Z,100989.94
2022-08-17T14:22:36.394Z,100985.88
2022-08-17T14:24:10.766Z,100987.34
2022-08-17T14:25:42.612Z,100987.97
2022-08-17T14:27:18.512Z,100982.81
2022-08-17T14:28:54.547Z,100979.84
2022-08-17T14:30:30.020Z,100980.25
2022-08-17T14:32:08.120Z,100978.34
2022-08-17T14:33:40.203Z,100979.47
2022-08-17T14:35:13.358Z,100978.25
2022-08-17T14:36:48.466Z,100986.84
2022-08-17T14:38:21.034Z,100984.25
2022-08-17T14:39:56.984Z,100976.53
2022-08-17T14:41:29.423Z,100974.81
2022-08-17T14:43:01.467Z,100975.75
2022-08-17T14:44:33.289Z,100980.63
2022-08-17T14:46:05.506Z,100973.94
2022-08-17T14:47:38.820Z,100974.63
2022-08-17T14:49:12.599Z,100974.16
2022-08-17T14:50:46.270Z,100972.94
2022-08-17T14:52:21.953Z,100972.28
2022-08-17T14:53:53.831Z,100967.75
2022-08-17T14:55:25.895Z,100965.66
2022-08-17T14:57:22.542Z,100966.31
2022-08-17T14:58:52.193Z,100966.22
2022-08-17T15:00:24.106Z,100964.22
2022-08-17T15:01:57.283Z,100964.31
2022-08-17T15:03:29.282Z,100965.28
2022-08-17T15:05:05.899Z,100964.69
2022-08-17T15:06:37.709Z,100966.50
2022-08-17T15:08:09.535Z,100958.31
2022-08-17T15:09:41.423Z,100962.13
2022-08-17T15:11:15.839Z,100962.97
2022-08-17T15:12:48.150Z,100965.38
2022-08-17T15:14:20.147Z,100964.91
2022-08-17T15:15:52.321Z,100965.31
2022-08-17T15:17:24.234Z,100972.38
2022-08-17T15:18:56.069Z,100966.00
2022-08-17T15:20:29.767Z,100966.84
2022-08-17T15:22:04.281Z,100966.72
2022-08-17T15:23:36.541Z,100964.38
2022-08-17T15:25:10.631Z,100955.59
2022-08-17T15:26:42.580Z,100958.25
2022-08-17T15:28:15.506Z,100955.78
2022-08-17T15:29:47.380Z,100948.75
2022-08-17T15:31:19.299Z,100950.94
2022-08-17T15:33:04.569Z,100949.38
2022-08-17T15:34:36.683Z,100944.78
2022-08-17T15:36:08.694Z,100947.06
2022-08-17T15:37:40.899Z,100944.00
2022-08-17T15:39:12.762Z,100941.56
2022-08-17T15:40:47.621Z,100943.38
2022-08-17T15:42:20.378Z,100945.09
2022-08-17T15:43:52.197Z,100945.09
2022-08-17T15:45:27.052Z,100942.25
2022-08-17T15:46:59.175Z,100937.56
2022-08-17T15:48:42.448Z,100943.47
2022-08-17T15:50:14.534Z,100939.84
2022-08-17T15:51:46.387Z,100939.72
2022-08-17T15:53:18.256Z,100947.22
2022-08-17T15:54:55.780Z,100945.88
2022-08-17T15:56:31.829Z,100953.44
2022-08-17T15:58:04.100Z,100956.13
2022-08-17T15:59:36.000Z,100941.31
2022-08-17T16:01:18.367Z,100937.47
2022-08-17T16:03:44.507Z,100945.94
2022-08-17T16:04:44.347Z,100938.50
2022-08-17T16:06:17.526Z,100938.50
2022-08-17T16:07:50.146Z,100927.78
2022-08-17T16:09:22.082Z,100930.25
2022-08-17T16:10:54.987Z,100930.84
2022-08-17T16:12:27.094Z,100937.56
2022-08-17T16:13:58.981Z,100946.34
2022-08-17T16:15:34.148Z,100946.34
2022-08-17T16:17:40.015Z,100951.91
2022-08-17T16:18:59.281Z,100946.66
2022-08-17T16:20:31.459Z,100944.09
2022-08-17T16:22:04.888Z,100952.03
2022-08-17T16:23:36.822Z,100943.03
2022-08-17T16:25:16.657Z,100945.41
2022-08-17T16:26:48.562Z,100946.66
2022-08-17T16:28:20.715Z,100943.91
2022-08-17T16:29:55.379Z,100948.38
2022-08-17T16:31:29.129Z,100944.25
2022-08-17T16:33:02.297Z,100941.09
2022-08-17T16:34:34.146Z,100943.25
2022-08-17T16:36:10.311Z,100943.84
2022-08-17T16:37:44.654Z,100943.44
2022-08-17T16:39:17.817Z,100945.72
2022-08-17T16:40:50.481Z,100949.34
2022-08-17T16:42:25.318Z,100943.03
2022-08-17T16:43:57.167Z,100944.75
2022-08-17T16:45:39.591Z,100950.50
2022-08-17T16:47:11.570Z,100951.28
2022-08-17T16:48:46.502Z,100949.03
2022-08-17T16:50:21.149Z,100955.25
2022-08-17T16:52:02.755Z,100951.25
2022-08-17T16:53:35.639Z,100953.03
2022-08-17T16:55:09.588Z,100956.69
2022-08-17T16:56:46.067Z,100955.56
2022-08-17T16:58:18.014Z,100952.16
2022-08-17T16:59:51.610Z,100960.75
2022-08-17T17:01:23.601Z,100962.66
2022-08-17T17:02:56.601Z,100957.69
2022-08-17T17:04:29.535Z,100953.31
2022-08-17T17:06:18.835Z,100963.31
2022-08-17T17:08:07.797Z,100963.53
2022-08-17T17:09:39.676Z,100961.81
2022-08-17T17:11:22.026Z,100970.19
2022-08-17T17:13:03.310Z,100970.66
2022-08-17T17:14:40.362Z,100976.63
2022-08-17T17:16:18.500Z,100974.16
2022-08-17T17:17:52.252Z,100966.78
2022-08-17T17:19:46.253Z,100971.44
2022-08-17T17:21:20.437Z,100965.31
2022-08-17T17:22:58.018Z,100968.00
2022-08-17T17:24:59.994Z,100967.91
2022-08-17T17:26:43.787Z,100977.63
2022-08-17T17:28:30.863Z,100961.59
2022-08-17T17:30:31.008Z,100970.47
2022-08-17T17:32:44.041Z,100970.41
2022-08-17T17:34:16.707Z,100974.72
2022-08-17T17:35:49.924Z,100975.56
2022-08-17T17:37:26.673Z,100971.09
2022-08-17T17:39:20.253Z,100966.84
2022-08-17T17:40:55.788Z,100965.22
2022-08-17T17:42:34.494Z,100968.09
2022-08-17T17:44:12.260Z,100982.56
2022-08-17T17:45:55.716Z,100985.44
2022-08-17T17:47:29.667Z,100978.34
2022-08-17T17:49:01.596Z,100990.84
2022-08-17T17:50:37.580Z,100985.44
2022-08-17T17:52:20.343Z,100989.81
2022-08-17T17:54:18.549Z,100992.09
2022-08-17T17:56:07.553Z,100993.72
2022-08-17T17:58:27.313Z,100986.16
2022-08-17T18:00:24.691Z,101000.72
2022-08-17T18:02:05.597Z,100994.63
2022-08-17T18:04:02.036Z,101003.47
2022-08-17T18:05:57.777Z,101001.50
2022-08-17T18:07:40.797Z,101003.41
2022-08-17T18:09:43.980Z,100995.47
2022-08-17T18:11:36.353Z,101002.00
2022-08-17T18:13:29.227Z,101008.56
2022-08-17T18:15:06.791Z,101009.50
2022-08-17T18:16:42.922Z,101015.78
2022-08-17T18:18:14.760Z,101023.03
2022-08-17T18:19:49.732Z,101018.47
2022-08-17T18:21:46.536Z,101020.34
2022-08-17T18:23:21.348Z,101017.69
2022-08-17T18:24:57.611Z,101025.97
2022-08-17T18:26:45.109Z,101032.84
2022-08-17T18:28:39.059Z,101034.91
2022-08-17T18:30:10.832Z,101035.88
2022-08-17T18:31:42.685Z,101036.81
2022-08-17T18:33:26.560Z,101036.91
2022-08-17T18:35:27.624Z,101044.13
2022-08-17T18:36:59.479Z,101045.16
2022-08-17T18:38:36.998Z,101046.19
2022-08-17T18:40:18.395Z,101038.19
2022-08-17T18:41:52.677Z,101040.94
2022-08-17T18:43:28.257Z,101049.81
2022-08-17T18:45:33.430Z,101053.69
2022-08-17T18:47:18.268Z,101046.63
2022-08-17T18:48:58.983Z,101046.78
2022-08-17T18:50:41.521Z,101033.59
2022-08-17T18:52:30.052Z,101035.41
2022-08-17T18:54:06.520Z,101037.38
2022-08-17T18:55:38.759Z,101037.38
2022-08-17T18:57:12.509Z,101040.91
2022-08-17T18:58:51.465Z,101042.72
2022-08-17T19:00:45.260Z,101045.56
2022-08-17T19:02:37.282Z,101044.75
2022-08-17T19:04:15.861Z,101043.91